Bougere, Louisiana
Current Conditions -  °F | °C
As of 11:55 PM on Monday 26 Jan 2015 (Local Time) from KHEZ Reporting Station
Clear Clear  
Wind Chill: 39°   Ceiling: Unl
Heat Index: 43°   Visibility: 10mi
Dew Point: 34°   Wind: 6mph
Humidity: 70%   Direction: 220°SW
Pressure: 30.08"   Gusts: NA
Location:  31.5712°N, 91.5148°W
Report Text: KHEZ 270555Z AUTO 22005KT 10SM CLR 06/01 A3008 RMK AO1 10100 20050 54000
Loading
Personal Weather Stations






























Interactive Weather Map New forecast layout! Learn more

10-Day Weather Forecast

Advertisements
Track Severe Weather on mobile